Time;durP1;ratioP1;P1;durP2;ratioP2;P2;SDS_P1;SDS_P2;PMS_P1;PMS_P2;Temp;Humidity;BMP_temperature;BMP_pressure;BME280_temperature;BME280_humidity;BME280_pressure;Samples;Min_cycle;Max_cycle;Signal;HPM_P1;HPM_P2
2022/11/08 00:02:41;;;;;;;;;;;16.50;99.20;;;;;;5072177;28;19931;-66
2022/11/08 00:16:03;;;;;;;;;;;16.40;99.10;;;;;;5053278;28;19958;-66
2022/11/08 00:18:29;;;;;;;;;;;16.70;99.10;;;;;;5054570;28;19928;-66
2022/11/08 00:20:54;;;;;;;;;;;16.70;99.10;;;;;;5055468;28;20447;-66
2022/11/08 00:23:20;;;;;;;;;;;16.90;99.20;;;;;;5071411;28;19924;-66
2022/11/08 00:25:51;;;;;;;;;;;16.50;99.00;;;;;;5070647;28;19940;-66
2022/11/08 00:28:17;;;;;;;;;;;16.60;99.10;;;;;;5086513;28;20400;-66
2022/11/08 00:30:43;;;;;;;;;;;16.70;99.10;;;;;;5093015;28;19928;-66
2022/11/08 00:33:08;;;;;;;;;;;16.70;99.10;;;;;;5075911;28;20373;-66
2022/11/08 00:35:34;;;;;;;;;;;16.70;99.00;;;;;;5099161;28;19947;-66
2022/11/08 00:37:59;;;;;;;;;;;16.60;99.00;;;;;;5113538;28;19923;-66
2022/11/08 00:40:25;;;;;;;;;;;16.70;99.10;;;;;;5114459;28;20415;-66
2022/11/08 00:42:51;;;;;;;;;;;16.70;99.10;;;;;;5100580;28;20022;-66
2022/11/08 00:45:16;;;;;;;;;;;16.60;99.00;;;;;;5094939;28;19966;-66
2022/11/08 00:47:42;;;;;;;;;;;16.60;99.00;;;;;;5113190;28;19923;-66
2022/11/08 00:50:08;;;;;;;;;;;16.40;99.00;;;;;;5113259;28;19924;-66
2022/11/08 00:52:33;;;;;;;;;;;16.80;99.10;;;;;;5114036;28;20011;-66
2022/11/08 00:54:59;;;;;;;;;;;16.60;99.00;;;;;;5096085;28;19967;-66
2022/11/08 00:57:25;;;;;;;;;;;16.70;99.00;;;;;;5111337;28;20297;-67
2022/11/08 00:59:50;;;;;;;;;;;16.70;99.00;;;;;;5101757;28;19947;-66
2022/11/08 01:02:16;;;;;;;;;;;16.80;99.00;;;;;;5092376;28;20014;-66
2022/11/08 01:04:42;;;;;;;;;;;16.50;98.90;;;;;;5092300;28;19970;-66
2022/11/08 01:07:07;;;;;;;;;;;16.60;99.00;;;;;;5112795;28;19924;-66
2022/11/08 01:09:33;;;;;;;;;;;16.50;99.00;;;;;;5113086;28;19930;-66
2022/11/08 01:11:59;;;;;;;;;;;16.60;99.00;;;;;;5112296;28;19931;-66
2022/11/08 01:14:24;;;;;;;;;;;16.50;98.90;;;;;;5114536;28;20014;-66
2022/11/08 01:16:51;;;;;;;;;;;16.60;98.90;;;;;;5111431;28;19924;-66
2022/11/08 01:19:16;;;;;;;;;;;16.60;98.70;;;;;;5114154;28;19935;-66
2022/11/08 01:21:42;;;;;;;;;;;16.80;99.00;;;;;;5112873;28;20293;-66
2022/11/08 01:24:08;;;;;;;;;;;16.60;98.90;;;;;;5111388;28;20680;-67
2022/11/08 01:26:33;;;;;;;;;;;16.70;99.00;;;;;;5111435;28;19924;-66
2022/11/08 01:28:59;;;;;;;;;;;16.50;98.90;;;;;;5116418;28;20022;-66
2022/11/08 01:31:25;;;;;;;;;;;16.50;98.90;;;;;;5116463;28;19928;-66
2022/11/08 01:33:51;;;;;;;;;;;16.50;98.80;;;;;;5108868;28;19923;-66
2022/11/08 01:36:18;;;;;;;;;;;16.70;98.80;;;;;;5116230;28;20010;-66
2022/11/08 01:38:44;;;;;;;;;;;16.70;98.80;;;;;;5115504;28;19958;-67
2022/11/08 01:41:12;;;;;;;;;;;16.80;98.90;;;;;;5116532;28;20381;-66
2022/11/08 01:43:42;;;;;;;;;;;16.90;98.90;;;;;;5099576;28;19992;-66
2022/11/08 01:46:15;;;;;;;;;;;16.50;98.80;;;;;;5099288;28;19965;-66
2022/11/08 01:48:42;;;;;;;;;;;16.70;98.80;;;;;;5098279;28;19931;-66
2022/11/08 01:51:08;;;;;;;;;;;16.80;98.80;;;;;;5098934;28;19931;-66
2022/11/08 01:53:34;;;;;;;;;;;16.70;98.80;;;;;;5099124;28;19924;-66
2022/11/08 01:55:59;;;;;;;;;;;16.80;98.80;;;;;;5098950;28;20006;-66
2022/11/08 01:58:26;;;;;;;;;;;16.70;98.80;;;;;;5115096;28;19986;-66
2022/11/08 02:00:51;;;;;;;;;;;17.00;98.80;;;;;;5115932;28;19927;-66
2022/11/08 02:03:17;;;;;;;;;;;16.80;98.80;;;;;;5115423;28;20003;-66
2022/11/08 02:05:43;;;;;;;;;;;16.90;98.70;;;;;;5115355;28;19928;-66
2022/11/08 02:08:08;;;;;;;;;;;16.70;98.70;;;;;;5108597;28;19931;-66
2022/11/08 02:10:35;;;;;;;;;;;16.60;98.70;;;;;;5116048;28;19967;-66
2022/11/08 02:13:00;;;;;;;;;;;16.60;98.70;;;;;;5098348;28;20334;-66
2022/11/08 02:15:26;;;;;;;;;;;16.60;98.70;;;;;;5115583;28;19927;-66
2022/11/08 02:17:52;;;;;;;;;;;16.50;98.60;;;;;;5113831;28;19928;-66
2022/11/08 02:20:18;;;;;;;;;;;16.70;98.70;;;;;;5114802;28;19973;-66
2022/11/08 02:22:48;;;;;;;;;;;16.70;98.70;;;;;;5114769;28;19923;-66
2022/11/08 02:25:14;;;;;;;;;;;16.80;98.70;;;;;;5098625;28;19923;-66
2022/11/08 02:27:39;;;;;;;;;;;16.70;98.70;;;;;;5098229;28;20285;-66
2022/11/08 02:30:05;;;;;;;;;;;16.80;98.70;;;;;;5114427;28;19924;-66
2022/11/08 02:32:38;;;;;;;;;;;16.50;98.60;;;;;;5114610;28;19946;-66
2022/11/08 02:35:03;;;;;;;;;;;16.50;98.60;;;;;;5098420;28;19975;-66
2022/11/08 02:37:29;;;;;;;;;;;16.70;98.70;;;;;;5098787;28;20482;-66
2022/11/08 02:39:55;;;;;;;;;;;16.60;98.60;;;;;;5096332;28;19930;-66
2022/11/08 02:42:20;;;;;;;;;;;16.70;98.60;;;;;;5114911;28;20023;-66
2022/11/08 02:44:46;;;;;;;;;;;;;;;;;;5116068;28;19927;-66
2022/11/08 02:47:12;;;;;;;;;;;16.70;98.60;;;;;;5115780;28;20415;-66
2022/11/08 02:49:38;;;;;;;;;;;16.70;98.60;;;;;;5115457;28;19924;-66
2022/11/08 02:52:03;;;;;;;;;;;16.60;98.60;;;;;;5115161;28;19924;-66
2022/11/08 02:54:29;;;;;;;;;;;16.60;98.50;;;;;;5114170;28;20377;-66
2022/11/08 02:56:55;;;;;;;;;;;16.50;98.50;;;;;;5114662;28;19923;-66
2022/11/08 02:59:20;;;;;;;;;;;16.50;98.50;;;;;;5100320;28;19928;-66
2022/11/08 03:01:46;;;;;;;;;;;16.60;98.50;;;;;;5115912;28;20010;-66
2022/11/08 03:04:11;;;;;;;;;;;16.30;98.40;;;;;;5114612;28;19930;-66
2022/11/08 03:06:37;;;;;;;;;;;16.60;98.50;;;;;;5115824;28;19946;-66
2022/11/08 03:09:03;;;;;;;;;;;16.40;98.40;;;;;;5113731;28;19923;-66
2022/11/08 03:11:28;;;;;;;;;;;16.70;98.50;;;;;;5114609;28;19966;-66
2022/11/08 03:13:54;;;;;;;;;;;16.80;98.50;;;;;;5116353;28;19927;-66
2022/11/08 03:16:20;;;;;;;;;;;16.40;98.40;;;;;;5097749;28;19924;-66
2022/11/08 03:18:45;;;;;;;;;;;16.60;98.40;;;;;;5094244;28;19924;-66
2022/11/08 03:21:11;;;;;;;;;;;;;;;;;;5110840;28;20006;-66
2022/11/08 03:23:37;;;;;;;;;;;16.50;98.40;;;;;;5113504;28;19924;-66
2022/11/08 03:26:03;;;;;;;;;;;16.70;98.50;;;;;;5114523;28;20338;-66
2022/11/08 03:28:28;;;;;;;;;;;16.40;98.40;;;;;;5114064;28;19923;-66
2022/11/08 03:30:54;;;;;;;;;;;;;;;;;;5114331;28;19923;-66
2022/11/08 03:33:20;;;;;;;;;;;16.80;98.50;;;;;;5098974;28;19924;-66
2022/11/08 03:35:49;;;;;;;;;;;16.20;98.30;;;;;;5076543;28;19928;-66
2022/11/08 03:38:14;;;;;;;;;;;16.50;98.40;;;;;;5060059;28;20430;-66
2022/11/08 03:40:40;;;;;;;;;;;16.50;98.40;;;;;;5099855;28;19924;-66
2022/11/08 03:43:06;;;;;;;;;;;16.50;98.40;;;;;;5115765;28;19985;-66
2022/11/08 03:45:31;;;;;;;;;;;16.50;98.40;;;;;;5096873;28;19924;-66
2022/11/08 03:47:57;;;;;;;;;;;16.40;98.30;;;;;;5114074;28;19930;-66
2022/11/08 03:50:22;;;;;;;;;;;16.60;98.30;;;;;;5111682;28;20002;-66
2022/11/08 03:52:52;;;;;;;;;;;16.50;98.30;;;;;;5114876;28;19931;-66
2022/11/08 03:55:18;;;;;;;;;;;16.50;98.30;;;;;;5113692;28;19924;-67
2022/11/08 03:57:44;;;;;;;;;;;16.60;98.30;;;;;;5112974;28;19977;-66
2022/11/08 04:00:10;;;;;;;;;;;16.60;98.30;;;;;;5114882;28;19924;-66
2022/11/08 04:02:35;;;;;;;;;;;16.50;98.30;;;;;;5114108;28;19923;-66
2022/11/08 04:05:01;;;;;;;;;;;16.50;98.30;;;;;;5114581;28;20442;-66
2022/11/08 04:07:27;;;;;;;;;;;16.50;98.30;;;;;;5096352;28;19931;-66
2022/11/08 04:09:53;;;;;;;;;;;16.50;98.30;;;;;;5113791;28;19972;-66
2022/11/08 04:15:17;;;;;;;;;;;16.60;98.30;;;;;;5098909;28;19946;-66
2022/11/08 04:23:14;;;;;;;;;;;16.50;98.30;;;;;;5097925;28;19970;-66
2022/11/08 04:25:40;;;;;;;;;;;16.40;98.30;;;;;;5113571;28;19970;-66
2022/11/08 04:28:06;;;;;;;;;;;16.60;98.30;;;;;;5096066;28;20360;-67
2022/11/08 04:30:31;;;;;;;;;;;16.60;98.30;;;;;;5085304;28;19977;-67
2022/11/08 04:33:03;;;;;;;;;;;16.50;98.30;;;;;;5106432;28;19966;-68
2022/11/08 04:35:29;;;;;;;;;;;16.40;98.20;;;;;;5095915;28;19924;-67
2022/11/08 04:37:59;;;;;;;;;;;16.40;98.20;;;;;;5096072;28;19924;-66
2022/11/08 04:40:24;;;;;;;;;;;16.60;98.30;;;;;;5096050;28;19924;-66
2022/11/08 04:42:50;;;;;;;;;;;16.40;98.20;;;;;;5112623;28;19931;-67
2022/11/08 04:45:16;;;;;;;;;;;16.70;98.20;;;;;;5112973;28;20004;-68
2022/11/08 04:47:44;;;;;;;;;;;16.20;98.10;;;;;;5111766;28;20073;-66
2022/11/08 04:50:09;;;;;;;;;;;16.60;98.20;;;;;;5113285;28;19931;-67
2022/11/08 04:52:35;;;;;;;;;;;16.50;98.20;;;;;;5113195;28;20369;-70
2022/11/08 04:55:00;;;;;;;;;;;16.30;98.10;;;;;;5114412;28;20375;-68
2022/11/08 04:57:27;;;;;;;;;;;16.40;98.10;;;;;;5104021;28;19935;-66
2022/11/08 04:59:52;;;;;;;;;;;16.40;98.10;;;;;;5092080;28;20003;-66
2022/11/08 05:02:18;;;;;;;;;;;16.50;98.10;;;;;;5113345;28;20015;-66
2022/11/08 05:04:44;;;;;;;;;;;16.50;98.10;;;;;;5118293;28;20519;-66
2022/11/08 05:07:09;;;;;;;;;;;16.60;98.10;;;;;;5116767;28;19985;-66
2022/11/08 05:09:35;;;;;;;;;;;16.30;98.00;;;;;;5115890;28;19970;-66
2022/11/08 05:12:00;;;;;;;;;;;16.50;98.10;;;;;;5116426;28;19978;-66
2022/11/08 05:14:26;;;;;;;;;;;16.40;98.10;;;;;;5107098;28;19967;-66
2022/11/08 05:16:52;;;;;;;;;;;16.40;98.10;;;;;;5079611;28;19985;-66
2022/11/08 05:23:22;;;;;;;;;;;16.50;98.10;;;;;;5097813;28;20399;-67
2022/11/08 05:24:47;;;;;;;;;;;16.20;98.00;;;;;;5101474;28;19968;-66
2022/11/08 05:27:13;;;;;;;;;;;16.30;98.00;;;;;;5116358;28;19924;-66
2022/11/08 05:29:38;;;;;;;;;;;16.20;98.00;;;;;;5115845;28;20294;-66
2022/11/08 05:32:04;;;;;;;;;;;16.40;98.00;;;;;;5116590;28;19958;-66
2022/11/08 05:34:30;;;;;;;;;;;16.40;98.00;;;;;;5115590;28;19977;-66
2022/11/08 05:36:55;;;;;;;;;;;16.50;98.00;;;;;;5116628;28;19928;-66
2022/11/08 05:39:21;;;;;;;;;;;;;;;;;;5116111;28;20301;-66
2022/11/08 05:41:47;;;;;;;;;;;16.60;98.10;;;;;;5116327;28;19991;-66
2022/11/08 05:44:13;;;;;;;;;;;16.40;98.00;;;;;;5098804;28;19919;-67
2022/11/08 05:46:38;;;;;;;;;;;16.50;98.00;;;;;;5099174;28;20296;-66
2022/11/08 05:49:04;;;;;;;;;;;16.20;97.90;;;;;;5095385;28;19931;-66
2022/11/08 05:51:30;;;;;;;;;;;16.70;98.10;;;;;;5096042;28;19931;-67
2022/11/08 05:53:55;;;;;;;;;;;16.30;97.90;;;;;;5082839;28;19926;-66
2022/11/08 05:56:21;;;;;;;;;;;16.30;97.90;;;;;;5098957;28;19924;-66
2022/11/08 05:58:47;;;;;;;;;;;16.40;98.00;;;;;;5117139;28;19923;-66
2022/11/08 06:01:13;;;;;;;;;;;16.60;98.00;;;;;;5115190;28;19931;-66
2022/11/08 06:03:39;;;;;;;;;;;16.20;97.90;;;;;;5116313;28;19976;-66
2022/11/08 06:06:05;;;;;;;;;;;16.10;97.90;;;;;;5106909;28;20388;-66
2022/11/08 06:08:31;;;;;;;;;;;16.40;97.90;;;;;;5116154;28;19924;-66
2022/11/08 06:11:10;;;;;;;;;;;16.30;97.90;;;;;;5115786;28;20380;-66
2022/11/08 06:13:36;;;;;;;;;;;16.40;97.90;;;;;;5116066;28;19923;-67
2022/11/08 06:16:02;;;;;;;;;;;16.60;98.00;;;;;;5097873;28;20319;-66
2022/11/08 06:18:28;;;;;;;;;;;16.40;97.90;;;;;;5115606;28;19978;-66
2022/11/08 06:20:53;;;;;;;;;;;16.40;97.90;;;;;;5081719;28;19923;-66
2022/11/08 06:23:19;;;;;;;;;;;16.40;97.90;;;;;;5099014;28;19931;-66
2022/11/08 06:25:45;;;;;;;;;;;16.40;97.90;;;;;;5109486;28;19971;-66
2022/11/08 06:28:12;;;;;;;;;;;16.40;97.90;;;;;;5115354;28;20292;-66
2022/11/08 06:30:37;;;;;;;;;;;16.50;97.90;;;;;;5098901;28;19982;-66
2022/11/08 06:33:03;;;;;;;;;;;16.40;97.80;;;;;;5115894;28;19963;-66
2022/11/08 06:35:29;;;;;;;;;;;16.50;97.80;;;;;;5114301;28;19976;-66
2022/11/08 06:37:54;;;;;;;;;;;16.20;97.80;;;;;;5098250;28;19924;-66
2022/11/08 06:40:20;;;;;;;;;;;16.40;97.80;;;;;;5098274;28;19938;-66
2022/11/08 06:42:46;;;;;;;;;;;16.30;97.80;;;;;;5094702;28;19981;-66
2022/11/08 06:45:11;;;;;;;;;;;16.40;97.80;;;;;;5101391;28;19923;-66
2022/11/08 06:47:37;;;;;;;;;;;16.50;97.80;;;;;;5116236;28;20292;-66
2022/11/08 06:50:03;;;;;;;;;;;16.30;97.70;;;;;;5113174;28;20019;-66
2022/11/08 06:52:28;;;;;;;;;;;16.20;97.70;;;;;;5116255;28;19931;-66
2022/11/08 06:54:54;;;;;;;;;;;16.40;97.80;;;;;;5116152;28;19924;-65
2022/11/08 06:57:19;;;;;;;;;;;16.40;97.70;;;;;;5104091;28;19949;-66
2022/11/08 06:59:45;;;;;;;;;;;16.30;97.70;;;;;;5114150;28;19970;-66
2022/11/08 07:02:11;;;;;;;;;;;16.60;97.70;;;;;;5114403;28;19931;-66
2022/11/08 07:04:36;;;;;;;;;;;16.60;97.70;;;;;;5096737;27;19923;-66
2022/11/08 07:07:02;;;;;;;;;;;16.30;97.70;;;;;;5115804;28;19931;-66
2022/11/08 07:09:28;;;;;;;;;;;16.40;97.60;;;;;;5114692;28;19979;-66
2022/11/08 07:11:54;;;;;;;;;;;16.50;97.60;;;;;;5114361;28;19927;-66
2022/11/08 07:14:20;;;;;;;;;;;16.30;97.60;;;;;;5109289;28;19946;-67
2022/11/08 07:16:45;;;;;;;;;;;16.20;97.60;;;;;;5115642;28;19928;-66
2022/11/08 07:19:11;;;;;;;;;;;16.60;97.70;;;;;;5114704;28;19923;-66
2022/11/08 07:21:37;;;;;;;;;;;16.50;97.60;;;;;;5113553;27;19928;-66
2022/11/08 07:24:02;;;;;;;;;;;16.40;97.50;;;;;;5114879;28;19939;-67
2022/11/08 07:26:28;;;;;;;;;;;16.60;97.50;;;;;;5113574;28;20300;-68
2022/11/08 07:28:54;;;;;;;;;;;16.30;97.40;;;;;;5114569;28;19931;-66
2022/11/08 07:31:20;;;;;;;;;;;16.60;97.50;;;;;;5110816;28;19930;-66
2022/11/08 07:33:46;;;;;;;;;;;16.60;97.40;;;;;;5113998;28;19934;-66
2022/11/08 07:36:11;;;;;;;;;;;16.50;97.40;;;;;;5097007;28;19924;-66
2022/11/08 07:38:40;;;;;;;;;;;16.60;97.40;;;;;;5113939;28;19923;-66
2022/11/08 07:41:05;;;;;;;;;;;16.20;97.20;;;;;;5112416;28;20029;-67
2022/11/08 07:43:31;;;;;;;;;;;16.60;97.30;;;;;;5114046;28;19932;-67
2022/11/08 07:45:57;;;;;;;;;;;16.80;97.40;;;;;;5113894;28;19959;-67
2022/11/08 07:48:23;;;;;;;;;;;16.30;97.20;;;;;;5093376;28;19924;-66
2022/11/08 07:50:49;;;;;;;;;;;16.80;97.30;;;;;;5097600;28;19924;-66
2022/11/08 07:53:15;;;;;;;;;;;16.40;97.20;;;;;;5114650;28;19932;-66
2022/11/08 07:55:40;;;;;;;;;;;16.70;97.30;;;;;;5114851;28;19923;-67
2022/11/08 07:58:06;;;;;;;;;;;16.60;97.20;;;;;;5113642;28;19935;-66
2022/11/08 08:00:32;;;;;;;;;;;16.50;97.10;;;;;;5113027;28;19924;-66
2022/11/08 08:02:58;;;;;;;;;;;16.50;97.10;;;;;;5113209;28;19942;-66
2022/11/08 08:05:25;;;;;;;;;;;16.70;97.10;;;;;;5113249;28;19924;-66
2022/11/08 08:07:50;;;;;;;;;;;16.40;97.00;;;;;;5113853;28;20027;-66
2022/11/08 08:10:16;;;;;;;;;;;16.70;97.00;;;;;;5113768;28;20034;-66
2022/11/08 08:12:42;;;;;;;;;;;16.40;96.80;;;;;;5105570;28;20352;-66
2022/11/08 08:15:08;;;;;;;;;;;16.80;96.90;;;;;;5109767;28;19966;-66
2022/11/08 08:17:33;;;;;;;;;;;16.60;96.80;;;;;;5109658;28;19924;-66
2022/11/08 08:19:59;;;;;;;;;;;16.70;96.80;;;;;;5114491;28;19924;-66
2022/11/08 08:22:25;;;;;;;;;;;16.50;96.70;;;;;;5110311;28;19976;-66
2022/11/08 08:24:50;;;;;;;;;;;16.80;96.80;;;;;;5114742;28;19984;-66
2022/11/08 08:27:16;;;;;;;;;;;;;;;;;;5113204;28;19927;-66
2022/11/08 08:29:42;;;;;;;;;;;16.70;96.60;;;;;;5113514;28;20014;-66
2022/11/08 08:32:08;;;;;;;;;;;16.60;96.50;;;;;;5112163;28;19977;-67
2022/11/08 08:34:34;;;;;;;;;;;16.70;96.40;;;;;;5096002;28;19927;-67
2022/11/08 08:36:59;;;;;;;;;;;16.60;96.20;;;;;;5111898;28;19923;-65
2022/11/08 08:39:25;;;;;;;;;;;16.70;96.10;;;;;;5095075;28;20349;-65
2022/11/08 08:41:51;;;;;;;;;;;16.60;96.00;;;;;;5093792;28;19924;-66
2022/11/08 08:44:16;;;;;;;;;;;16.60;96.00;;;;;;5092659;28;20266;-66
2022/11/08 08:46:42;;;;;;;;;;;16.80;96.00;;;;;;5106632;28;19928;-66
2022/11/08 08:49:08;;;;;;;;;;;16.80;95.90;;;;;;5111528;28;19926;-66
2022/11/08 08:51:33;;;;;;;;;;;16.70;95.80;;;;;;5112761;28;19932;-66
2022/11/08 08:54:00;;;;;;;;;;;16.60;95.80;;;;;;5114057;28;20024;-65
2022/11/08 08:56:27;;;;;;;;;;;16.50;95.80;;;;;;5092539;28;20381;-65
2022/11/08 08:58:53;;;;;;;;;;;16.50;95.90;;;;;;5113993;28;19975;-65
2022/11/08 09:01:19;;;;;;;;;;;16.60;95.90;;;;;;5078138;28;20389;-66
2022/11/08 09:03:45;;;;;;;;;;;16.60;95.80;;;;;;5095723;28;20007;-67
2022/11/08 09:06:10;;;;;;;;;;;16.70;95.70;;;;;;5113819;28;19924;-66
2022/11/08 09:08:36;;;;;;;;;;;16.60;95.60;;;;;;5112218;28;19935;-66
2022/11/08 09:11:02;;;;;;;;;;;16.50;95.60;;;;;;5112831;28;20010;-66
2022/11/08 09:13:29;;;;;;;;;;;16.60;95.60;;;;;;5095100;28;19925;-66
2022/11/08 09:15:55;;;;;;;;;;;16.50;95.60;;;;;;5093635;28;20393;-66
2022/11/08 09:18:21;;;;;;;;;;;16.70;95.60;;;;;;5089545;28;19977;-67
2022/11/08 09:20:46;;;;;;;;;;;16.50;95.60;;;;;;5095137;28;19975;-66
2022/11/08 09:23:12;;;;;;;;;;;16.60;95.60;;;;;;5114463;28;19970;-66
2022/11/08 09:25:38;;;;;;;;;;;16.80;95.60;;;;;;5112930;28;19924;-66
2022/11/08 09:28:04;;;;;;;;;;;16.60;95.60;;;;;;5110756;28;19924;-66
2022/11/08 09:30:29;;;;;;;;;;;16.60;95.50;;;;;;5112412;28;20350;-66
2022/11/08 09:32:55;;;;;;;;;;;16.60;95.50;;;;;;5112823;28;19924;-66
2022/11/08 09:35:21;;;;;;;;;;;16.70;95.50;;;;;;5114436;28;20265;-66
2022/11/08 09:37:47;;;;;;;;;;;16.90;95.60;;;;;;5094973;28;19923;-67
2022/11/08 09:40:16;;;;;;;;;;;16.90;95.50;;;;;;5112421;28;19931;-66
2022/11/08 09:43:00;;;;;;;;;;;16.80;95.60;;;;;;5095556;28;19932;-66
2022/11/08 09:45:27;;;;;;;;;;;;;;;;;;5094766;28;19928;-66
2022/11/08 09:47:54;;;;;;;;;;;16.80;95.50;;;;;;5111088;28;20394;-66
2022/11/08 09:50:40;;;;;;;;;;;16.70;95.50;;;;;;5098519;28;19985;-67
2022/11/08 09:53:34;;;;;;;;;;;16.70;95.50;;;;;;5116488;28;20296;-66
2022/11/08 09:56:35;;;;;;;;;;;16.80;95.50;;;;;;5109135;28;19977;-66
2022/11/08 09:59:12;;;;;;;;;;;16.80;95.50;;;;;;5077048;28;20046;-66
2022/11/08 10:01:38;;;;;;;;;;;16.90;95.50;;;;;;5061612;28;19927;-66
2022/11/08 10:04:05;;;;;;;;;;;16.90;95.50;;;;;;5077615;28;19924;-66
2022/11/08 10:06:37;;;;;;;;;;;16.80;95.50;;;;;;5076006;28;19924;-65
2022/11/08 10:09:21;;;;;;;;;;;17.10;95.50;;;;;;5076874;28;19924;-65
2022/11/08 10:11:55;;;;;;;;;;;17.30;95.20;;;;;;5094541;28;19924;-66
2022/11/08 10:14:36;;;;;;;;;;;17.20;95.40;;;;;;5074845;28;19932;-65
2022/11/08 10:17:21;;;;;;;;;;;16.90;95.30;;;;;;5093339;28;19932;-65
2022/11/08 10:19:53;;;;;;;;;;;17.10;95.30;;;;;;5094231;28;19924;-65
2022/11/08 10:22:22;;;;;;;;;;;17.00;95.30;;;;;;5093397;28;20009;-65
2022/11/08 10:24:53;;;;;;;;;;;16.90;95.20;;;;;;5060711;28;19924;-65
2022/11/08 10:27:29;;;;;;;;;;;17.10;95.20;;;;;;5059706;28;19978;-66
2022/11/08 10:29:56;;;;;;;;;;;17.10;95.20;;;;;;5060056;28;19924;-65
2022/11/08 10:32:22;;;;;;;;;;;17.50;95.30;;;;;;5094553;28;19924;-65
2022/11/08 10:34:57;;;;;;;;;;;17.30;95.20;;;;;;5096288;28;19947;-65
2022/11/08 10:37:23;;;;;;;;;;;17.20;95.10;;;;;;5102791;28;19966;-65
2022/11/08 10:39:59;;;;;;;;;;;17.10;95.10;;;;;;5113926;28;19924;-65
2022/11/08 10:42:30;;;;;;;;;;;17.00;95.00;;;;;;5115202;28;19930;-65
2022/11/08 10:44:56;;;;;;;;;;;17.50;95.10;;;;;;5115315;28;20305;-66
2022/11/08 10:47:23;;;;;;;;;;;17.40;95.10;;;;;;5114458;28;19924;-67
2022/11/08 10:49:49;;;;;;;;;;;17.20;95.00;;;;;;5115413;28;19969;-65
2022/11/08 10:52:19;;;;;;;;;;;17.20;95.10;;;;;;5114969;28;20389;-66
2022/11/08 10:54:51;;;;;;;;;;;17.40;95.00;;;;;;5114137;28;20429;-66
2022/11/08 10:57:36;;;;;;;;;;;17.20;94.90;;;;;;5098109;28;20326;-71
2022/11/08 11:00:15;;;;;;;;;;;17.20;95.00;;;;;;5113320;28;19924;-70
2022/11/08 11:02:41;;;;;;;;;;;17.30;94.60;;;;;;5116294;28;19930;-70
2022/11/08 11:05:20;;;;;;;;;;;17.30;95.00;;;;;;5113035;28;19925;-70
2022/11/08 11:07:49;;;;;;;;;;;17.10;94.60;;;;;;5114707;28;19970;-73
2022/11/08 11:10:22;;;;;;;;;;;17.20;95.10;;;;;;5096812;28;19949;-72
2022/11/08 11:12:49;;;;;;;;;;;17.10;95.00;;;;;;5095425;28;20297;-75
2022/11/08 11:15:15;;;;;;;;;;;17.30;95.00;;;;;;5097570;28;19924;-70
2022/11/08 11:17:42;;;;;;;;;;;17.40;95.00;;;;;;5097321;28;19924;-74
2022/11/08 11:20:17;;;;;;;;;;;17.40;95.10;;;;;;5096746;28;19930;-67
2022/11/08 11:22:43;;;;;;;;;;;17.50;95.10;;;;;;5097496;28;19945;-67
2022/11/08 11:25:29;;;;;;;;;;;17.20;94.80;;;;;;5114335;28;19969;-69
2022/11/08 11:27:58;;;;;;;;;;;17.00;94.90;;;;;;5109067;28;20006;-69
2022/11/08 11:30:24;;;;;;;;;;;17.40;95.00;;;;;;5077412;28;19924;-69
2022/11/08 11:32:59;;;;;;;;;;;17.10;94.90;;;;;;5094175;28;20400;-66
2022/11/08 11:35:25;;;;;;;;;;;17.30;95.00;;;;;;5111165;28;20120;-66
2022/11/08 11:37:51;;;;;;;;;;;17.10;94.90;;;;;;5115616;28;19930;-65
2022/11/08 11:40:25;;;;;;;;;;;17.00;94.80;;;;;;5115582;28;20376;-66
2022/11/08 11:43:08;;;;;;;;;;;17.30;95.00;;;;;;5097369;28;20393;-65
2022/11/08 11:45:40;;;;;;;;;;;17.10;94.90;;;;;;5096498;28;19930;-66
2022/11/08 11:48:16;;;;;;;;;;;17.10;94.90;;;;;;5097314;28;20387;-66
2022/11/08 11:50:45;;;;;;;;;;;17.30;94.90;;;;;;5113639;28;19990;-66
2022/11/08 11:53:13;;;;;;;;;;;17.00;94.90;;;;;;5096851;28;20393;-66
2022/11/08 11:55:45;;;;;;;;;;;17.30;95.00;;;;;;5097124;28;19931;-66
2022/11/08 11:58:15;;;;;;;;;;;17.00;94.50;;;;;;5097031;28;20007;-66
2022/11/08 12:00:41;;;;;;;;;;;16.90;94.80;;;;;;5095343;28;20377;-66
2022/11/08 12:03:13;;;;;;;;;;;17.30;94.80;;;;;;5079905;28;19949;-66
2022/11/08 12:06:09;;;;;;;;;;;17.00;94.70;;;;;;5113346;28;19931;-66
2022/11/08 12:08:37;;;;;;;;;;;17.10;94.70;;;;;;5095360;28;20016;-70
2022/11/08 12:11:03;;;;;;;;;;;17.10;94.70;;;;;;5109907;28;19931;-66
2022/11/08 12:13:47;;;;;;;;;;;17.40;94.90;;;;;;5113137;28;19923;-66
2022/11/08 12:16:32;;;;;;;;;;;17.40;94.80;;;;;;5112862;28;19924;-66
2022/11/08 12:18:57;;;;;;;;;;;17.40;94.80;;;;;;5112340;28;19924;-65
2022/11/08 12:21:28;;;;;;;;;;;17.10;94.70;;;;;;5112865;28;19931;-66
2022/11/08 12:24:00;;;;;;;;;;;17.10;94.70;;;;;;5111721;28;20373;-68
2022/11/08 12:26:38;;;;;;;;;;;17.20;94.70;;;;;;5094402;28;20423;-69
2022/11/08 12:29:10;;;;;;;;;;;17.20;94.30;;;;;;5113136;28;20061;-70
2022/11/08 12:31:44;;;;;;;;;;;17.20;94.70;;;;;;5114410;28;19934;-69
2022/11/08 12:34:16;;;;;;;;;;;17.20;94.30;;;;;;5114727;28;19924;-70
2022/11/08 12:37:01;;;;;;;;;;;17.00;94.60;;;;;;5094032;28;20397;-67
2022/11/08 12:39:46;;;;;;;;;;;17.00;94.20;;;;;;5113441;28;20265;-68
2022/11/08 12:42:11;;;;;;;;;;;17.20;94.70;;;;;;5114679;28;20289;-68
2022/11/08 12:44:55;;;;;;;;;;;17.10;94.70;;;;;;5113261;28;19923;-70
2022/11/08 12:47:34;;;;;;;;;;;17.40;94.30;;;;;;5095234;28;19924;-68
2022/11/08 12:50:14;;;;;;;;;;;17.10;94.50;;;;;;5105175;28;19924;-65
2022/11/08 12:53:06;;;;;;;;;;;17.00;94.60;;;;;;5109317;28;19924;-67
2022/11/08 12:55:35;;;;;;;;;;;17.20;94.60;;;;;;5083309;28;19924;-67
2022/11/08 12:58:02;;;;;;;;;;;17.00;94.50;;;;;;5112657;28;19927;-66
2022/11/08 13:00:27;;;;;;;;;;;17.10;94.50;;;;;;5096035;28;19993;-66
2022/11/08 13:03:03;;;;;;;;;;;17.20;94.60;;;;;;5095670;28;19924;-66
2022/11/08 13:05:39;;;;;;;;;;;17.10;94.50;;;;;;5109609;28;20423;-66
2022/11/08 13:08:12;;;;;;;;;;;17.20;94.50;;;;;;5109009;28;20023;-66
2022/11/08 13:10:38;;;;;;;;;;;17.30;94.20;;;;;;5084976;28;19924;-65
2022/11/08 13:13:22;;;;;;;;;;;17.10;94.50;;;;;;5092698;28;19931;-65
2022/11/08 13:16:07;;;;;;;;;;;17.20;94.60;;;;;;5092676;28;20327;-66
2022/11/08 13:18:43;;;;;;;;;;;17.10;94.60;;;;;;5106224;28;19924;-65
2022/11/08 13:21:37;;;;;;;;;;;17.10;94.60;;;;;;5095823;28;19924;-69
2022/11/08 13:24:05;;;;;;;;;;;17.40;94.60;;;;;;5112985;28;19946;-67
2022/11/08 13:26:40;;;;;;;;;;;17.30;94.60;;;;;;5111052;28;20010;-68
2022/11/08 13:29:15;;;;;;;;;;;17.20;94.60;;;;;;5080428;28;19928;-65
2022/11/08 13:31:40;;;;;;;;;;;17.10;94.60;;;;;;5096212;28;19924;-65
2022/11/08 13:34:06;;;;;;;;;;;17.20;94.60;;;;;;5097746;28;19924;-67
2022/11/08 13:36:35;;;;;;;;;;;17.20;94.60;;;;;;5096352;28;20335;-65
2022/11/08 13:39:27;;;;;;;;;;;17.30;94.60;;;;;;5096041;28;20019;-67
2022/11/08 13:42:00;;;;;;;;;;;17.10;94.60;;;;;;5108898;28;19923;-69
2022/11/08 13:44:52;;;;;;;;;;;17.20;94.20;;;;;;5090792;28;20304;-67
2022/11/08 13:47:30;;;;;;;;;;;17.30;94.70;;;;;;5065296;28;19931;-68
2022/11/08 13:50:15;;;;;;;;;;;17.00;94.20;;;;;;5095860;28;19928;-69
2022/11/08 13:52:44;;;;;;;;;;;17.20;94.20;;;;;;5096996;28;20377;-67
2022/11/08 13:55:28;;;;;;;;;;;17.10;94.70;;;;;;5097285;28;19924;-68
2022/11/08 13:57:57;;;;;;;;;;;17.00;94.30;;;;;;5096842;28;19928;-67
2022/11/08 14:00:33;;;;;;;;;;;17.20;94.80;;;;;;5096148;28;19924;-67
2022/11/08 14:02:59;;;;;;;;;;;17.20;94.80;;;;;;5112947;28;20022;-68
2022/11/08 14:05:25;;;;;;;;;;;17.20;94.80;;;;;;5095324;28;20403;-68
2022/11/08 14:07:57;;;;;;;;;;;16.90;94.70;;;;;;5086651;28;20018;-68
2022/11/08 14:10:38;;;;;;;;;;;17.00;94.60;;;;;;5115166;28;20402;-67
2022/11/08 14:13:13;;;;;;;;;;;17.30;94.70;;;;;;5097950;28;19931;-70
2022/11/08 14:15:59;;;;;;;;;;;16.80;94.60;;;;;;5115666;28;19947;-68
2022/11/08 14:18:26;;;;;;;;;;;17.10;94.70;;;;;;5080342;28;19928;-68
2022/11/08 14:20:52;;;;;;;;;;;17.20;94.90;;;;;;5099558;28;19967;-68
2022/11/08 14:23:17;;;;;;;;;;;17.00;94.70;;;;;;5117185;28;20348;-67
2022/11/08 14:25:56;;;;;;;;;;;17.00;94.80;;;;;;5117067;28;19924;-67
2022/11/08 14:28:22;;;;;;;;;;;17.20;94.70;;;;;;5097786;28;19923;-68
2022/11/08 14:30:48;;;;;;;;;;;16.90;94.60;;;;;;5114213;28;19923;-68
2022/11/08 14:33:14;;;;;;;;;;;16.90;94.80;;;;;;5098422;28;19930;-68
2022/11/08 14:35:39;;;;;;;;;;;17.10;94.70;;;;;;5103138;28;20009;-68
2022/11/08 14:38:14;;;;;;;;;;;16.90;94.70;;;;;;5084853;28;19927;-68
2022/11/08 14:40:45;;;;;;;;;;;16.90;94.70;;;;;;5080599;28;20436;-68
2022/11/08 14:43:11;;;;;;;;;;;17.10;95.00;;;;;;5098257;28;19924;-68
2022/11/08 14:45:37;;;;;;;;;;;17.00;94.70;;;;;;5092217;28;19924;-69
2022/11/08 14:48:03;;;;;;;;;;;17.10;94.80;;;;;;5098083;28;20338;-68
2022/11/08 14:50:32;;;;;;;;;;;17.10;94.80;;;;;;5111990;28;20285;-68